Time;durP1;ratioP1;P1;durP2;ratioP2;P2;SDS_P1;SDS_P2;PMS_P1;PMS_P2;Temp;Humidity;BMP_temperature;BMP_pressure;BME280_temperature;BME280_humidity;BME280_pressure;Samples;Min_cycle;Max_cycle;Signal;HPM_P1;HPM_P2
2021/12/23 00:01:23;;;;;;;;;;;-1.80;85.90;;;;;;5025560;28;87114;-45
2021/12/23 00:03:48;;;;;;;;;;;-1.80;85.80;;;;;;5025717;28;88893;-45
2021/12/23 00:06:14;;;;;;;;;;;-1.90;85.70;;;;;;5025141;28;89641;-45
2021/12/23 00:08:39;;;;;;;;;;;-1.80;85.70;;;;;;5025961;28;86398;-45
2021/12/23 00:11:05;;;;;;;;;;;-1.80;85.60;;;;;;5028083;28;88227;-45
2021/12/23 00:13:33;;;;;;;;;;;-1.90;85.90;;;;;;5025514;28;87119;-45
2021/12/23 00:23:44;;;;;;;;;;;-1.90;85.90;;;;;;5025656;28;86972;-45
2021/12/23 00:26:10;;;;;;;;;;;-1.90;85.80;;;;;;5024857;28;89432;-45
2021/12/23 00:28:36;;;;;;;;;;;-1.90;85.70;;;;;;5025181;28;86979;-44
2021/12/23 00:31:02;;;;;;;;;;;-1.90;85.60;;;;;;5025201;28;88362;-45
2021/12/23 00:33:28;;;;;;;;;;;-1.90;85.60;;;;;;5027980;28;87494;-45
2021/12/23 00:35:55;;;;;;;;;;;-1.90;85.60;;;;;;5023960;28;89969;-45
2021/12/23 00:38:29;;;;;;;;;;;-1.90;85.70;;;;;;5024922;28;88355;-45
2021/12/23 00:40:55;;;;;;;;;;;-2.00;85.60;;;;;;5024976;28;87804;-45
2021/12/23 00:43:21;;;;;;;;;;;-2.00;85.70;;;;;;5024474;28;89714;-45
2021/12/23 00:45:47;;;;;;;;;;;-2.00;85.70;;;;;;5024701;28;89395;-45
2021/12/23 00:48:13;;;;;;;;;;;-2.00;85.70;;;;;;5024941;28;87074;-46
2021/12/23 00:50:38;;;;;;;;;;;-2.00;85.70;;;;;;5024865;28;87707;-45
2021/12/23 00:53:07;;;;;;;;;;;-2.00;85.70;;;;;;5024635;28;89333;-46
2021/12/23 00:55:33;;;;;;;;;;;-2.10;85.70;;;;;;5027987;28;87282;-45
2021/12/23 00:57:59;;;;;;;;;;;-2.00;85.80;;;;;;5024865;28;88544;-45
2021/12/23 01:00:26;;;;;;;;;;;-2.00;85.70;;;;;;5024481;28;87200;-45
2021/12/23 01:02:51;;;;;;;;;;;-2.00;85.60;;;;;;5025023;28;88820;-45
2021/12/23 01:05:18;;;;;;;;;;;-2.10;85.50;;;;;;5023476;28;90596;-45
2021/12/23 01:07:44;;;;;;;;;;;-2.00;85.60;;;;;;5024752;28;87114;-45
2021/12/23 01:10:10;;;;;;;;;;;-2.00;85.60;;;;;;5024478;28;89084;-45
2021/12/23 01:12:45;;;;;;;;;;;-2.10;85.60;;;;;;5024587;28;88050;-45
2021/12/23 01:15:17;;;;;;;;;;;-2.10;85.60;;;;;;5027231;28;86925;-45
2021/12/23 01:18:30;;;;;;;;;;;-2.10;85.50;;;;;;5024383;28;89567;-45
2021/12/23 01:20:31;;;;;;;;;;;-2.10;85.60;;;;;;5019790;28;87306;-45
2021/12/23 01:23:07;;;;;;;;;;;-2.10;85.50;;;;;;5024960;28;88679;-45
2021/12/23 01:25:34;;;;;;;;;;;-2.10;85.50;;;;;;5024298;28;88266;-45
2021/12/23 01:28:00;;;;;;;;;;;-2.10;85.50;;;;;;5024565;28;87173;-45
2021/12/23 01:30:26;;;;;;;;;;;-2.20;85.40;;;;;;5023666;28;89063;-45
2021/12/23 01:32:54;;;;;;;;;;;-2.10;85.40;;;;;;5023786;28;89766;-45
2021/12/23 01:35:20;;;;;;;;;;;-2.10;85.40;;;;;;5024102;28;87118;-45
2021/12/23 01:37:45;;;;;;;;;;;-2.10;85.30;;;;;;5026910;28;88962;-45
2021/12/23 01:40:12;;;;;;;;;;;-2.10;85.20;;;;;;5024060;28;87018;-45
2021/12/23 01:42:38;;;;;;;;;;;-2.10;85.20;;;;;;5024288;28;88766;-45
2021/12/23 01:45:08;;;;;;;;;;;-2.10;85.20;;;;;;5023687;28;88695;-45
2021/12/23 01:47:33;;;;;;;;;;;-2.20;85.20;;;;;;5024590;28;86278;-45
2021/12/23 01:49:59;;;;;;;;;;;-2.20;85.30;;;;;;5024049;28;88367;-45
2021/12/23 01:52:25;;;;;;;;;;;-2.20;85.30;;;;;;5023602;28;88464;-45
2021/12/23 01:54:50;;;;;;;;;;;-2.20;85.40;;;;;;5022097;28;88044;-45
2021/12/23 01:57:16;;;;;;;;;;;-2.20;85.30;;;;;;5023823;28;89847;-46
2021/12/23 01:59:42;;;;;;;;;;;-2.20;85.30;;;;;;5026280;28;89092;-46
2021/12/23 02:02:07;;;;;;;;;;;-2.20;85.20;;;;;;5023864;28;88602;-45
2021/12/23 02:04:33;;;;;;;;;;;-2.30;85.20;;;;;;5023338;28;89833;-45
2021/12/23 02:06:58;;;;;;;;;;;-2.20;85.30;;;;;;5023859;28;87154;-45
2021/12/23 02:09:24;;;;;;;;;;;-2.30;85.30;;;;;;5023424;28;89236;-45
2021/12/23 02:11:49;;;;;;;;;;;-2.20;85.20;;;;;;5024151;28;87109;-45
2021/12/23 02:14:16;;;;;;;;;;;-2.30;85.20;;;;;;5023034;28;88387;-45
2021/12/23 02:16:42;;;;;;;;;;;-2.30;85.20;;;;;;5023994;28;87319;-46
2021/12/23 02:19:16;;;;;;;;;;;-2.30;85.20;;;;;;5022556;28;89283;-46
2021/12/23 02:21:42;;;;;;;;;;;-2.30;85.20;;;;;;5026583;28;87110;-45
2021/12/23 02:24:07;;;;;;;;;;;-2.30;85.30;;;;;;5022998;28;89482;-46
2021/12/23 02:26:37;;;;;;;;;;;-2.30;85.40;;;;;;5023328;28;88113;-45
2021/12/23 02:29:02;;;;;;;;;;;-2.30;85.30;;;;;;5023345;28;89272;-45
2021/12/23 02:31:28;;;;;;;;;;;-2.30;85.30;;;;;;5023175;28;88933;-45
2021/12/23 02:33:53;;;;;;;;;;;-2.40;85.20;;;;;;5023233;28;87156;-45
2021/12/23 02:36:19;;;;;;;;;;;-2.40;85.20;;;;;;5023793;28;88747;-45
2021/12/23 02:38:44;;;;;;;;;;;-2.40;85.20;;;;;;5022745;28;88738;-45
2021/12/23 02:41:10;;;;;;;;;;;-2.40;85.10;;;;;;5023530;28;87134;-45
2021/12/23 02:43:36;;;;;;;;;;;-2.40;85.10;;;;;;5025160;28;88831;-45
2021/12/23 02:46:02;;;;;;;;;;;-2.40;85.10;;;;;;5023397;28;87203;-45
2021/12/23 02:48:34;;;;;;;;;;;-2.40;85.20;;;;;;5023229;28;89178;-45
2021/12/23 02:51:01;;;;;;;;;;;-2.40;85.20;;;;;;5022876;28;89232;-45
2021/12/23 02:53:26;;;;;;;;;;;-2.40;85.20;;;;;;5022920;28;87090;-45
2021/12/23 02:55:59;;;;;;;;;;;-2.40;85.30;;;;;;5023358;28;88754;-45
2021/12/23 02:58:24;;;;;;;;;;;-2.40;85.20;;;;;;5022844;28;89678;-45
2021/12/23 03:00:51;;;;;;;;;;;-2.50;85.20;;;;;;5023621;28;86300;-45
2021/12/23 03:03:17;;;;;;;;;;;-2.50;85.20;;;;;;5022988;28;87785;-45
2021/12/23 03:05:53;;;;;;;;;;;-2.50;85.00;;;;;;5027168;28;89279;-46
2021/12/23 03:08:29;;;;;;;;;;;-2.50;85.70;;;;;;5026250;28;88976;-45
2021/12/23 03:10:55;;;;;;;;;;;-2.50;85.10;;;;;;5026249;28;88591;-45
2021/12/23 03:13:21;;;;;;;;;;;-2.50;85.10;;;;;;5026438;28;87113;-45
2021/12/23 03:15:46;;;;;;;;;;;-2.50;85.10;;;;;;5026289;28;89069;-46
2021/12/23 03:18:12;;;;;;;;;;;-2.50;85.10;;;;;;5026060;28;89920;-45
2021/12/23 03:20:38;;;;;;;;;;;-2.50;85.20;;;;;;5026105;28;87154;-45
2021/12/23 03:23:03;;;;;;;;;;;-2.50;85.20;;;;;;5026637;28;89076;-45
2021/12/23 03:25:29;;;;;;;;;;;-2.60;85.10;;;;;;5029315;28;89210;-45
2021/12/23 03:27:54;;;;;;;;;;;-2.50;85.20;;;;;;5026396;28;87931;-45
2021/12/23 03:30:20;;;;;;;;;;;-2.60;85.10;;;;;;5026201;28;87329;-45
2021/12/23 03:32:46;;;;;;;;;;;-2.60;85.20;;;;;;5025698;28;88080;-45
2021/12/23 03:35:12;;;;;;;;;;;-2.60;85.00;;;;;;5026135;28;89752;-45
2021/12/23 03:37:37;;;;;;;;;;;-2.60;85.10;;;;;;5025994;28;88190;-46
2021/12/23 03:40:04;;;;;;;;;;;-2.60;85.10;;;;;;5025912;28;87162;-45
2021/12/23 03:42:29;;;;;;;;;;;-2.60;85.10;;;;;;5026207;28;88955;-45
2021/12/23 03:44:55;;;;;;;;;;;-2.60;85.10;;;;;;5025545;28;89584;-45
2021/12/23 03:47:21;;;;;;;;;;;-2.60;85.00;;;;;;5028817;28;87098;-45
2021/12/23 03:49:46;;;;;;;;;;;-2.60;85.10;;;;;;5026055;28;88599;-45
2021/12/23 03:52:12;;;;;;;;;;;-2.60;85.00;;;;;;5025921;28;87189;-45
2021/12/23 03:54:38;;;;;;;;;;;-2.70;84.90;;;;;;5025894;28;88959;-45
2021/12/23 03:57:04;;;;;;;;;;;-2.70;84.90;;;;;;5024898;28;90884;-45
2021/12/23 03:59:29;;;;;;;;;;;-2.70;84.80;;;;;;5025811;28;87005;-45
2021/12/23 04:01:55;;;;;;;;;;;-2.70;84.80;;;;;;5025875;28;89430;-45
2021/12/23 04:04:21;;;;;;;;;;;-2.70;85.00;;;;;;5025296;28;88202;-45
2021/12/23 04:06:46;;;;;;;;;;;-2.70;85.00;;;;;;5025542;28;87177;-46
2021/12/23 04:09:12;;;;;;;;;;;-2.70;84.90;;;;;;5028209;28;87954;-45
2021/12/23 04:11:37;;;;;;;;;;;-2.70;84.90;;;;;;5025855;28;87070;-45
2021/12/23 04:14:03;;;;;;;;;;;-2.70;84.80;;;;;;5025834;28;88251;-45
2021/12/23 04:16:28;;;;;;;;;;;-2.70;84.90;;;;;;5024410;28;87929;-45
2021/12/23 04:18:55;;;;;;;;;;;-2.70;84.90;;;;;;5025054;28;86965;-45
2021/12/23 04:21:20;;;;;;;;;;;-2.80;84.70;;;;;;5024633;28;88742;-46
2021/12/23 04:23:46;;;;;;;;;;;-2.80;84.80;;;;;;5025298;28;88217;-45
2021/12/23 04:26:12;;;;;;;;;;;-2.80;84.80;;;;;;5025607;28;87080;-45
2021/12/23 04:28:45;;;;;;;;;;;-2.80;84.80;;;;;;5025172;28;88492;-45
2021/12/23 04:31:13;;;;;;;;;;;-2.80;84.80;;;;;;5027899;28;89516;-46
2021/12/23 04:33:38;;;;;;;;;;;-2.80;84.90;;;;;;5025295;28;89245;-45
2021/12/23 04:36:04;;;;;;;;;;;-2.80;84.90;;;;;;5024953;28;88290;-45
2021/12/23 04:38:29;;;;;;;;;;;-2.80;84.90;;;;;;5025402;28;86327;-45
2021/12/23 04:40:55;;;;;;;;;;;-2.90;84.80;;;;;;5025306;28;86880;-45
2021/12/23 04:43:21;;;;;;;;;;;-2.80;84.90;;;;;;5024898;28;87982;-46
2021/12/23 04:45:46;;;;;;;;;;;-2.90;84.80;;;;;;5024263;28;88128;-45
2021/12/23 04:48:12;;;;;;;;;;;-2.90;84.80;;;;;;5024920;28;90062;-45
2021/12/23 04:50:37;;;;;;;;;;;-2.90;84.90;;;;;;5024578;28;89188;-45
2021/12/23 04:53:03;;;;;;;;;;;-2.90;84.80;;;;;;5027616;28;87153;-45
2021/12/23 04:55:30;;;;;;;;;;;-2.90;84.80;;;;;;5024622;28;88058;-46
2021/12/23 04:57:56;;;;;;;;;;;-2.90;84.80;;;;;;5024947;28;87136;-45
2021/12/23 05:00:22;;;;;;;;;;;-2.90;84.80;;;;;;5024661;28;88948;-45
2021/12/23 05:02:48;;;;;;;;;;;-2.90;84.70;;;;;;5025019;28;88937;-45
2021/12/23 05:05:14;;;;;;;;;;;-2.90;84.80;;;;;;5024549;28;87183;-45
2021/12/23 05:07:40;;;;;;;;;;;-3.00;84.70;;;;;;5025056;28;89383;-45
2021/12/23 05:10:07;;;;;;;;;;;-3.00;84.80;;;;;;5022386;28;92613;-45
2021/12/23 05:12:35;;;;;;;;;;;-3.00;84.80;;;;;;5024561;28;87095;-45
2021/12/23 05:15:01;;;;;;;;;;;-3.00;84.80;;;;;;5026801;28;87867;-45
2021/12/23 05:17:26;;;;;;;;;;;-3.00;84.80;;;;;;5024577;28;86867;-45
2021/12/23 05:19:52;;;;;;;;;;;-3.00;84.80;;;;;;5024521;28;87014;-45
2021/12/23 05:22:17;;;;;;;;;;;-3.00;84.80;;;;;;5023936;28;89948;-45
2021/12/23 05:24:43;;;;;;;;;;;-3.00;84.80;;;;;;5024325;28;87154;-45
2021/12/23 05:27:08;;;;;;;;;;;-3.10;84.90;;;;;;5024983;28;88971;-45
2021/12/23 05:29:34;;;;;;;;;;;-3.10;84.80;;;;;;5023893;28;89484;-45
2021/12/23 05:31:59;;;;;;;;;;;-3.10;84.80;;;;;;5024201;28;87146;-45
2021/12/23 05:34:25;;;;;;;;;;;-3.10;84.70;;;;;;5025950;28;88571;-45
2021/12/23 05:36:50;;;;;;;;;;;-3.10;84.70;;;;;;5024429;28;87124;-45
2021/12/23 05:39:17;;;;;;;;;;;-3.10;84.60;;;;;;5024293;28;86909;-45
2021/12/23 05:41:42;;;;;;;;;;;-3.10;84.70;;;;;;5023891;28;90152;-44
2021/12/23 05:44:08;;;;;;;;;;;-3.10;84.70;;;;;;5024194;28;87162;-45
2021/12/23 05:46:33;;;;;;;;;;;-3.10;84.70;;;;;;5024427;28;87723;-45
2021/12/23 05:48:59;;;;;;;;;;;-3.10;84.80;;;;;;5023870;28;88048;-45
2021/12/23 05:51:24;;;;;;;;;;;-3.10;84.80;;;;;;5024546;28;86384;-44
2021/12/23 05:53:50;;;;;;;;;;;-3.10;84.80;;;;;;5024009;28;88240;-45
2021/12/23 05:56:15;;;;;;;;;;;-3.20;84.70;;;;;;5026519;28;89286;-44
2021/12/23 05:58:41;;;;;;;;;;;-3.20;84.80;;;;;;5023330;28;87856;-45
2021/12/23 06:01:06;;;;;;;;;;;-3.20;84.70;;;;;;5023792;28;89843;-45
2021/12/23 06:03:32;;;;;;;;;;;-3.20;84.70;;;;;;5024011;28;87124;-45
2021/12/23 06:05:58;;;;;;;;;;;-3.20;84.70;;;;;;5023710;28;88987;-45
2021/12/23 06:08:23;;;;;;;;;;;-3.20;84.80;;;;;;5023207;28;89473;-45
2021/12/23 06:10:49;;;;;;;;;;;-3.20;84.80;;;;;;5023941;28;87003;-45
2021/12/23 06:13:14;;;;;;;;;;;-3.20;84.80;;;;;;5023905;28;87426;-45
2021/12/23 06:15:40;;;;;;;;;;;-3.20;84.80;;;;;;5023169;28;90527;-45
2021/12/23 06:18:05;;;;;;;;;;;-3.20;84.80;;;;;;5026375;28;87150;-45
2021/12/23 06:20:31;;;;;;;;;;;-3.30;84.80;;;;;;5023091;28;89625;-45
2021/12/23 06:22:57;;;;;;;;;;;-3.30;84.80;;;;;;5022876;28;87987;-45
2021/12/23 06:25:22;;;;;;;;;;;-3.30;84.80;;;;;;5023349;28;89979;-44
2021/12/23 06:27:48;;;;;;;;;;;-3.30;84.70;;;;;;5023113;28;89591;-45
2021/12/23 06:30:18;;;;;;;;;;;-3.30;84.80;;;;;;5023597;28;87124;-45
2021/12/23 06:32:48;;;;;;;;;;;-3.30;84.80;;;;;;5023552;28;89391;-45
2021/12/23 06:35:14;;;;;;;;;;;-3.30;84.70;;;;;;5022916;28;89425;-45
2021/12/23 06:37:39;;;;;;;;;;;-3.30;84.70;;;;;;5023664;28;87117;-45
2021/12/23 06:40:05;;;;;;;;;;;-3.30;84.70;;;;;;5025666;28;88538;-45
2021/12/23 06:42:31;;;;;;;;;;;-3.30;84.70;;;;;;5023205;28;87095;-44
2021/12/23 06:44:56;;;;;;;;;;;-3.30;84.70;;;;;;5023241;28;88880;-45
2021/12/23 06:47:22;;;;;;;;;;;-3.30;84.70;;;;;;5022220;28;90399;-45
2021/12/23 06:49:47;;;;;;;;;;;-3.30;84.70;;;;;;5023069;28;87227;-45
2021/12/23 06:52:13;;;;;;;;;;;-3.40;84.60;;;;;;5023505;28;87635;-45
2021/12/23 06:54:42;;;;;;;;;;;-3.40;84.60;;;;;;5022815;28;89255;-44
2021/12/23 06:57:08;;;;;;;;;;;-3.40;84.60;;;;;;5023277;28;87140;-45
2021/12/23 06:59:34;;;;;;;;;;;-3.40;84.50;;;;;;5023091;28;87802;-45
2021/12/23 07:01:59;;;;;;;;;;;-3.40;84.60;;;;;;5025600;28;89214;-45
2021/12/23 07:04:29;;;;;;;;;;;-3.40;84.60;;;;;;5023040;28;87803;-45
2021/12/23 07:07:11;;;;;;;;;;;-3.40;84.50;;;;;;5022758;28;91029;-45
2021/12/23 07:09:38;;;;;;;;;;;-3.40;84.50;;;;;;5023141;28;86903;-45
2021/12/23 07:12:04;;;;;;;;;;;-3.40;84.60;;;;;;5022347;28;89046;-45
2021/12/23 07:14:29;;;;;;;;;;;-3.40;84.50;;;;;;5022057;28;87807;-45
2021/12/23 07:16:55;;;;;;;;;;;-3.40;84.50;;;;;;5022778;28;87051;-45
2021/12/23 07:19:20;;;;;;;;;;;-3.40;84.40;;;;;;5022795;28;89187;-45
2021/12/23 07:21:46;;;;;;;;;;;-3.40;84.50;;;;;;5022676;28;89613;-45
2021/12/23 07:24:11;;;;;;;;;;;-3.40;84.40;;;;;;5025593;28;86861;-45
2021/12/23 07:26:37;;;;;;;;;;;-3.40;84.40;;;;;;5022377;28;89551;-45
2021/12/23 07:29:03;;;;;;;;;;;-3.40;84.40;;;;;;5023151;28;86071;-45
2021/12/23 07:31:28;;;;;;;;;;;-3.40;84.30;;;;;;5022699;28;87014;-45
2021/12/23 07:33:54;;;;;;;;;;;-3.50;84.30;;;;;;5022431;28;88050;-45
2021/12/23 07:36:22;;;;;;;;;;;-3.40;84.30;;;;;;5021880;28;88111;-45
2021/12/23 07:38:48;;;;;;;;;;;-3.50;84.30;;;;;;5022487;28;89544;-44
2021/12/23 07:41:14;;;;;;;;;;;-3.50;84.30;;;;;;5022193;28;89909;-45
2021/12/23 07:46:05;;;;;;;;;;;-3.50;84.40;;;;;;5022305;28;87452;-45
2021/12/23 07:48:31;;;;;;;;;;;-3.50;84.50;;;;;;5022305;28;87108;-45
2021/12/23 07:50:57;;;;;;;;;;;-3.50;84.50;;;;;;5022401;28;88587;-45
2021/12/23 07:53:23;;;;;;;;;;;-3.50;84.50;;;;;;5024923;28;87910;-45
2021/12/23 07:55:48;;;;;;;;;;;-3.50;84.60;;;;;;5025852;28;87050;-45
2021/12/23 07:58:14;;;;;;;;;;;-3.50;84.60;;;;;;5024549;28;90746;-45
2021/12/23 08:00:39;;;;;;;;;;;-3.50;84.60;;;;;;5024708;28;89313;-45
2021/12/23 08:03:05;;;;;;;;;;;-3.50;84.60;;;;;;5025694;28;87223;-45
2021/12/23 08:05:31;;;;;;;;;;;-3.50;84.70;;;;;;5028167;28;88770;-45
2021/12/23 08:07:57;;;;;;;;;;;-3.50;84.80;;;;;;5025860;28;87009;-45
2021/12/23 08:10:23;;;;;;;;;;;-3.60;84.70;;;;;;5025543;28;88572;-45
2021/12/23 08:12:48;;;;;;;;;;;-3.60;84.70;;;;;;5025328;28;90199;-45
2021/12/23 08:15:14;;;;;;;;;;;-3.60;84.70;;;;;;5024916;28;87110;-45
2021/12/23 08:17:39;;;;;;;;;;;-3.60;84.70;;;;;;5025994;28;87964;-45
2021/12/23 08:20:05;;;;;;;;;;;-3.60;84.80;;;;;;5025021;28;89757;-45
2021/12/23 08:22:31;;;;;;;;;;;-3.60;84.80;;;;;;5025329;28;87045;-45
2021/12/23 08:24:57;;;;;;;;;;;-3.60;84.90;;;;;;5024739;28;89232;-45
2021/12/23 08:27:26;;;;;;;;;;;-3.60;84.90;;;;;;5027914;28;90348;-45
2021/12/23 08:29:51;;;;;;;;;;;-3.60;84.90;;;;;;5025204;28;88765;-45
2021/12/23 08:32:18;;;;;;;;;;;-3.60;85.00;;;;;;5024900;28;89442;-44
2021/12/23 08:34:44;;;;;;;;;;;-3.60;85.00;;;;;;5025325;28;87096;-45
2021/12/23 08:37:11;;;;;;;;;;;-3.60;85.10;;;;;;5025048;28;88997;-45
2021/12/23 08:39:40;;;;;;;;;;;-3.60;85.00;;;;;;5024471;28;88785;-45
2021/12/23 08:42:07;;;;;;;;;;;-3.60;85.00;;;;;;5025536;28;86465;-46
2021/12/23 08:44:33;;;;;;;;;;;-3.60;85.10;;;;;;5025104;28;88360;-45
2021/12/23 08:46:58;;;;;;;;;;;-3.60;85.10;;;;;;5024940;28;89433;-45
2021/12/23 08:49:24;;;;;;;;;;;-3.60;85.20;;;;;;5027386;28;88069;-46
2021/12/23 08:51:49;;;;;;;;;;;-3.70;85.20;;;;;;5024636;28;89407;-45
2021/12/23 08:54:16;;;;;;;;;;;-3.60;85.30;;;;;;5025091;28;87160;-45
2021/12/23 08:56:42;;;;;;;;;;;-3.60;85.20;;;;;;5024895;28;88966;-46
2021/12/23 08:59:07;;;;;;;;;;;-3.60;85.20;;;;;;5024337;28;89382;-46
2021/12/23 09:01:33;;;;;;;;;;;-3.60;85.30;;;;;;5024716;28;87427;-45
2021/12/23 09:03:58;;;;;;;;;;;-3.60;85.30;;;;;;5024263;28;88895;-45
2021/12/23 09:06:24;;;;;;;;;;;-3.60;85.40;;;;;;5024981;28;88725;-45
2021/12/23 09:08:50;;;;;;;;;;;-3.60;85.30;;;;;;5023299;28;87156;-45
2021/12/23 09:11:16;;;;;;;;;;;-3.60;85.40;;;;;;5027161;28;88930;-45
2021/12/23 09:13:42;;;;;;;;;;;-3.70;85.30;;;;;;5022637;28;87763;-45
2021/12/23 09:16:07;;;;;;;;;;;-3.70;85.30;;;;;;5024371;28;89889;-45
2021/12/23 09:18:33;;;;;;;;;;;-3.70;85.50;;;;;;5024223;28;89744;-45
2021/12/23 09:20:59;;;;;;;;;;;-3.70;85.50;;;;;;5024392;28;87165;-45
2021/12/23 09:23:25;;;;;;;;;;;-3.70;85.50;;;;;;5024598;28;87624;-45
2021/12/23 09:25:51;;;;;;;;;;;-3.70;85.40;;;;;;5024090;28;89467;-46
2021/12/23 09:33:36;;;;;;;;;;;-3.70;85.70;;;;;;5022446;28;86982;-45
2021/12/23 09:36:03;;;;;;;;;;;-3.70;85.70;;;;;;5024347;28;88786;-45
2021/12/23 09:38:28;;;;;;;;;;;-3.70;85.70;;;;;;5023321;28;89438;-46
2021/12/23 09:40:57;;;;;;;;;;;-3.70;85.70;;;;;;5024304;28;87135;-45
2021/12/23 09:43:24;;;;;;;;;;;-3.70;85.80;;;;;;5022955;28;90632;-45
2021/12/23 09:45:50;;;;;;;;;;;-3.70;85.90;;;;;;5023802;28;88158;-46
2021/12/23 09:48:19;;;;;;;;;;;-3.70;85.90;;;;;;5024396;28;87084;-45
2021/12/23 09:50:44;;;;;;;;;;;-3.70;85.90;;;;;;5024131;28;88823;-46
2021/12/23 09:53:13;;;;;;;;;;;-3.70;85.90;;;;;;5026693;28;87349;-45
2021/12/23 09:55:38;;;;;;;;;;;-3.70;86.00;;;;;;5024371;28;88972;-45
2021/12/23 09:58:04;;;;;;;;;;;-3.70;86.00;;;;;;5023709;28;87342;-46
2021/12/23 10:00:33;;;;;;;;;;;-3.70;86.10;;;;;;5023670;28;87197;-45
2021/12/23 10:02:59;;;;;;;;;;;-3.70;86.00;;;;;;5023321;28;87807;-45
2021/12/23 10:05:25;;;;;;;;;;;-3.70;86.10;;;;;;5023415;28;89472;-46
2021/12/23 10:07:53;;;;;;;;;;;-3.70;86.10;;;;;;5023865;28;87185;-45
2021/12/23 10:10:24;;;;;;;;;;;-3.70;86.10;;;;;;5023553;28;88592;-45
2021/12/23 10:32:12;;;;;;;;;;;-3.60;86.20;;;;;;5023628;28;88218;-45
2021/12/23 10:39:43;;;;;;;;;;;-3.70;86.10;;;;;;5025721;28;87229;-46
2021/12/23 10:42:11;;;;;;;;;;;-3.60;86.20;;;;;;5023319;28;87172;-45
2021/12/23 10:44:38;;;;;;;;;;;-3.60;86.20;;;;;;5023228;28;87832;-46
2021/12/23 10:47:04;;;;;;;;;;;-3.60;86.20;;;;;;5023551;28;88585;-45
2021/12/23 10:49:43;;;;;;;;;;;-3.60;86.10;;;;;;5023144;28;87117;-45
2021/12/23 10:52:25;;;;;;;;;;;-3.60;86.20;;;;;;5023282;28;88838;-45
2021/12/23 11:00:11;;;;;;;;;;;-3.60;86.10;;;;;;5023297;28;86881;-45
2021/12/23 11:02:38;;;;;;;;;;;-3.60;86.10;;;;;;5025426;28;89749;-45
2021/12/23 11:07:40;;;;;;;;;;;-3.60;86.20;;;;;;5022607;28;89660;-46
2021/12/23 11:10:17;;;;;;;;;;;-3.60;86.20;;;;;;5022944;28;87178;-45
2021/12/23 11:35:32;;;;;;;;;;;-3.50;86.20;;;;;;5026186;28;87011;-45
2021/12/23 11:37:50;;;;;;;;;;;-3.40;86.00;;;;;;5026060;28;87237;-45
2021/12/23 11:40:48;;;;;;;;;;;-3.40;86.00;;;;;;5026212;28;86246;-45
2021/12/23 11:45:44;;;;;;;;;;;-3.40;86.20;;;;;;5025780;28;87983;-45
2021/12/23 11:48:10;;;;;;;;;;;-3.40;85.90;;;;;;5028171;28;87753;-45
2021/12/23 11:50:52;;;;;;;;;;;-3.40;85.90;;;;;;5025478;28;88459;-46
2021/12/23 11:53:18;;;;;;;;;;;-3.40;85.90;;;;;;5026182;28;86963;-45
2021/12/23 11:55:44;;;;;;;;;;;-3.40;86.00;;;;;;5026046;28;87540;-45
2021/12/23 11:58:10;;;;;;;;;;;-3.40;86.00;;;;;;5025443;28;89835;-45
2021/12/23 12:00:42;;;;;;;;;;;-3.30;86.20;;;;;;5025709;28;87194;-45
2021/12/23 12:03:08;;;;;;;;;;;-3.30;85.90;;;;;;5025867;28;88896;-45
2021/12/23 12:05:35;;;;;;;;;;;-3.30;86.30;;;;;;5025471;28;88587;-45
2021/12/23 12:08:04;;;;;;;;;;;-3.30;86.00;;;;;;5025751;28;87168;-45
2021/12/23 12:10:32;;;;;;;;;;;-3.30;86.10;;;;;;5028187;28;88937;-45
2021/12/23 12:13:02;;;;;;;;;;;-3.30;86.00;;;;;;5024968;28;88055;-45
2021/12/23 12:15:37;;;;;;;;;;;-3.30;86.10;;;;;;5025077;28;89855;-45
2021/12/23 12:18:03;;;;;;;;;;;-3.30;86.10;;;;;;5025042;28;89224;-45
2021/12/23 12:20:39;;;;;;;;;;;-3.30;86.00;;;;;;5025589;28;87111;-45
2021/12/23 12:23:06;;;;;;;;;;;-3.20;86.20;;;;;;5025421;28;88814;-47
2021/12/23 12:25:38;;;;;;;;;;;-3.20;86.10;;;;;;5024990;28;89346;-45
2021/12/23 12:28:03;;;;;;;;;;;-3.20;86.10;;;;;;5025454;28;87175;-45
2021/12/23 12:30:35;;;;;;;;;;;-3.20;86.70;;;;;;5025739;28;88929;-45
2021/12/23 12:33:23;;;;;;;;;;;-3.20;86.60;;;;;;5027938;28;89600;-45
2021/12/23 12:36:01;;;;;;;;;;;-3.20;86.20;;;;;;5026980;27;88727;-45
2021/12/23 12:38:28;;;;;;;;;;;-3.20;86.20;;;;;;5023582;28;89135;-45
2021/12/23 12:40:53;;;;;;;;;;;-3.20;86.60;;;;;;5024777;28;86964;-45
2021/12/23 12:43:30;;;;;;;;;;;-3.20;86.50;;;;;;5025489;28;87293;-45
2021/12/23 12:45:56;;;;;;;;;;;-3.10;86.30;;;;;;5024639;28;88936;-45
2021/12/23 12:48:21;;;;;;;;;;;-3.20;86.70;;;;;;5025279;28;87010;-45
2021/12/23 12:50:51;;;;;;;;;;;-3.10;87.00;;;;;;5024921;28;88776;-45
2021/12/23 12:53:18;;;;;;;;;;;-3.10;86.80;;;;;;5024605;28;89609;-46
2021/12/23 12:55:48;;;;;;;;;;;-3.10;86.20;;;;;;5028365;28;86414;-45
2021/12/23 12:58:14;;;;;;;;;;;-3.00;86.50;;;;;;5024355;28;89921;-45
2021/12/23 13:00:42;;;;;;;;;;;-3.10;86.20;;;;;;5024735;28;87135;-45
2021/12/23 13:03:11;;;;;;;;;;;-3.10;86.50;;;;;;5024479;28;87924;-45
2021/12/23 13:05:42;;;;;;;;;;;-3.00;86.50;;;;;;5024323;28;89587;-45
2021/12/23 13:08:20;;;;;;;;;;;-3.00;86.50;;;;;;5024548;28;87160;-45
2021/12/23 13:10:48;;;;;;;;;;;-3.00;86.70;;;;;;5024585;28;88976;-45
2021/12/23 13:13:45;;;;;;;;;;;-3.00;86.70;;;;;;5024423;28;89573;-45
2021/12/23 13:16:15;;;;;;;;;;;-3.00;86.60;;;;;;4993511;28;87460;-45
2021/12/23 13:18:41;;;;;;;;;;;-3.00;86.30;;;;;;4987172;28;88783;-45
2021/12/23 13:21:08;;;;;;;;;;;-3.00;86.60;;;;;;4985177;28;86327;-45
2021/12/23 13:23:40;;;;;;;;;;;-3.00;86.50;;;;;;4984878;28;87026;-45
2021/12/23 13:26:10;;;;;;;;;;;-3.00;86.50;;;;;;4984259;28;89596;-45
2021/12/23 13:28:40;;;;;;;;;;;-3.00;86.70;;;;;;4983767;28;88033;-45
2021/12/23 13:31:07;;;;;;;;;;;-2.90;86.50;;;;;;4984127;28;90017;-45
2021/12/23 13:33:40;;;;;;;;;;;-2.90;86.40;;;;;;4984305;28;89474;-45
2021/12/23 13:36:11;;;;;;;;;;;-2.90;86.50;;;;;;4984318;28;87073;-45
2021/12/23 13:38:41;;;;;;;;;;;-2.90;87.20;;;;;;4984773;28;87505;-46
2021/12/23 13:41:15;;;;;;;;;;;-2.90;86.90;;;;;;4986870;28;88014;-45
2021/12/23 13:43:40;;;;;;;;;;;-2.90;86.60;;;;;;4984280;28;88718;-46
2021/12/23 13:46:07;;;;;;;;;;;-2.90;86.60;;;;;;4984642;28;87930;-45
2021/12/23 13:48:45;;;;;;;;;;;-2.80;86.80;;;;;;4984247;28;86812;-45
2021/12/23 13:51:12;;;;;;;;;;;-2.80;86.50;;;;;;4984293;28;89408;-46
2021/12/23 13:53:38;;;;;;;;;;;-2.80;86.70;;;;;;4983043;28;90642;-45
2021/12/23 13:56:09;;;;;;;;;;;-2.80;86.50;;;;;;4983741;28;87109;-45
2021/12/23 13:58:35;;;;;;;;;;;-2.80;86.40;;;;;;4984213;28;88766;-45
2021/12/23 14:01:01;;;;;;;;;;;-2.80;86.40;;;;;;4986432;28;89489;-45
2021/12/23 14:03:26;;;;;;;;;;;-2.70;86.50;;;;;;4984021;28;88894;-45
2021/12/23 14:05:52;;;;;;;;;;;-2.80;86.30;;;;;;4983522;28;89628;-45
2021/12/23 14:08:18;;;;;;;;;;;-2.70;86.50;;;;;;4984034;28;87110;-46
2021/12/23 14:10:45;;;;;;;;;;;-2.70;86.00;;;;;;4983937;28;89241;-45
2021/12/23 14:13:11;;;;;;;;;;;-2.70;86.30;;;;;;4983590;28;88494;-45
2021/12/23 14:15:38;;;;;;;;;;;-2.70;86.50;;;;;;5009852;28;87153;-46
2021/12/23 14:23:25;;;;;;;;;;;-2.70;86.20;;;;;;5026403;28;87226;-45
2021/12/23 14:25:59;;;;;;;;;;;-2.60;86.70;;;;;;5023184;28;89103;-45
2021/12/23 14:28:25;;;;;;;;;;;-2.70;86.20;;;;;;5023436;28;87270;-46
2021/12/23 14:30:50;;;;;;;;;;;-2.70;87.00;;;;;;5023545;28;89134;-45
2021/12/23 14:33:18;;;;;;;;;;;-2.60;86.30;;;;;;5012595;28;88035;-48
2021/12/23 14:35:51;;;;;;;;;;;-2.30;88.40;;;;;;5003719;28;86385;-49
2021/12/23 14:38:23;;;;;;;;;;;0.10;86.10;;;;;;5003437;28;88209;-43
2021/12/23 14:41:07;;;;;;;;;;;2.40;79.30;;;;;;5002987;28;89523;-50
2021/12/23 14:43:54;;;;;;;;;;;3.90;75.10;;;;;;5002693;28;88128;-50
2021/12/23 14:46:39;;;;;;;;;;;5.40;70.80;;;;;;5005633;28;89999;-46
2021/12/23 14:51:37;;;;;;;;;;;7.40;65.60;;;;;;5003364;28;87370;-54
2021/12/23 14:54:10;;;;;;;;;;;8.30;63.60;;;;;;5002819;28;88874;-52
2021/12/23 14:56:37;;;;;;;;;;;9.30;61.20;;;;;;5003052;28;87196;-57
2021/12/23 14:59:10;;;;;;;;;;;9.90;59.60;;;;;;5003234;28;88869;-50
2021/12/23 15:01:36;;;;;;;;;;;10.30;58.00;;;;;;5004690;28;88718;-53
2021/12/23 15:04:06;;;;;;;;;;;9.30;59.50;;;;;;5006668;28;86898;-52
2021/12/23 15:06:32;;;;;;;;;;;8.40;61.40;;;;;;5006666;28;88621;-48
2021/12/23 15:08:57;;;;;;;;;;;7.80;62.50;;;;;;5008740;28;88659;-50
2021/12/23 15:11:27;;;;;;;;;;;7.50;63.30;;;;;;5006428;28;90173;-48
2021/12/23 15:13:52;;;;;;;;;;;7.30;64.00;;;;;;5006130;28;89763;-56
2021/12/23 15:16:19;;;;;;;;;;;7.20;64.80;;;;;;5006118;28;87025;-44
2021/12/23 15:21:31;;;;;;;;;;;7.00;65.50;;;;;;5006159;28;87983;-52
2021/12/23 15:23:56;;;;;;;;;;;6.90;65.80;;;;;;5006643;28;87564;-47
2021/12/23 15:26:23;;;;;;;;;;;6.80;66.10;;;;;;5007146;28;87258;-54
2021/12/23 15:29:09;;;;;;;;;;;6.80;66.30;;;;;;5005934;28;88423;-48
2021/12/23 15:31:35;;;;;;;;;;;6.80;66.50;;;;;;5009331;28;87125;-44
2021/12/23 15:34:01;;;;;;;;;;;6.70;66.50;;;;;;5005150;28;90684;-48
2021/12/23 15:36:26;;;;;;;;;;;6.60;66.70;;;;;;5006007;28;87148;-47
2021/12/23 15:38:52;;;;;;;;;;;5.90;68.40;;;;;;5006331;28;89064;-46
2021/12/23 15:41:17;;;;;;;;;;;6.00;69.50;;;;;;5005809;28;88747;-46
2021/12/23 15:43:43;;;;;;;;;;;7.70;66.00;;;;;;5005803;28;87041;-45